sensor_id;sensor_type;location;lat;lon;timestamp;P1;durP1;ratioP1;P2;durP2;ratioP2
65187;SDS011;51775;51.148;6.950;2023-04-20T00:00:08;1.60;;;1.10;;
65187;SDS011;51775;51.148;6.950;2023-04-20T00:02:34;3.15;;;1.20;;
65187;SDS011;51775;51.148;6.950;2023-04-20T00:04:59;2.10;;;1.10;;
65187;SDS011;51775;51.148;6.950;2023-04-20T00:07:24;2.22;;;1.35;;
65187;SDS011;51775;51.148;6.950;2023-04-20T00:09:49;2.00;;;1.10;;
65187;SDS011;51775;51.148;6.950;2023-04-20T00:12:15;1.48;;;1.10;;
65187;SDS011;51775;51.148;6.950;2023-04-20T00:14:40;1.65;;;1.00;;
65187;SDS011;51775;51.148;6.950;2023-04-20T00:17:05;1.90;;;1.25;;
65187;SDS011;51775;51.148;6.950;2023-04-20T00:19:30;1.83;;;1.10;;
65187;SDS011;51775;51.148;6.950;2023-04-20T00:21:56;1.65;;;1.10;;
65187;SDS011;51775;51.148;6.950;2023-04-20T00:24:21;1.52;;;1.00;;
65187;SDS011;51775;51.148;6.950;2023-04-20T00:26:46;3.47;;;1.30;;
65187;SDS011;51775;51.148;6.950;2023-04-20T00:29:11;1.75;;;1.10;;
65187;SDS011;51775;51.148;6.950;2023-04-20T00:31:37;1.70;;;1.00;;
65187;SDS011;51775;51.148;6.950;2023-04-20T00:34:08;1.95;;;1.10;;
65187;SDS011;51775;51.148;6.950;2023-04-20T00:36:33;1.90;;;1.20;;
65187;SDS011;51775;51.148;6.950;2023-04-20T00:38:58;1.95;;;1.20;;
65187;SDS011;51775;51.148;6.950;2023-04-20T00:41:24;2.15;;;1.20;;
65187;SDS011;51775;51.148;6.950;2023-04-20T00:43:52;2.13;;;1.10;;
65187;SDS011;51775;51.148;6.950;2023-04-20T00:46:19;2.22;;;1.10;;
65187;SDS011;51775;51.148;6.950;2023-04-20T00:48:45;2.30;;;1.33;;
65187;SDS011;51775;51.148;6.950;2023-04-20T00:51:10;1.80;;;1.10;;
65187;SDS011;51775;51.148;6.950;2023-04-20T00:53:36;2.78;;;1.30;;
65187;SDS011;51775;51.148;6.950;2023-04-20T00:56:02;1.77;;;1.10;;
65187;SDS011;51775;51.148;6.950;2023-04-20T00:58:27;1.88;;;1.17;;
65187;SDS011;51775;51.148;6.950;2023-04-20T01:00:52;2.05;;;1.00;;
65187;SDS011;51775;51.148;6.950;2023-04-20T01:03:18;2.45;;;1.30;;
65187;SDS011;51775;51.148;6.950;2023-04-20T01:05:43;1.58;;;1.05;;
65187;SDS011;51775;51.148;6.950;2023-04-20T01:08:09;2.05;;;1.20;;
65187;SDS011;51775;51.148;6.950;2023-04-20T01:10:34;2.10;;;1.20;;
65187;SDS011;51775;51.148;6.950;2023-04-20T01:12:59;1.75;;;1.10;;
65187;SDS011;51775;51.148;6.950;2023-04-20T01:15:24;2.03;;;0.98;;
65187;SDS011;51775;51.148;6.950;2023-04-20T01:17:50;2.13;;;1.30;;
65187;SDS011;51775;51.148;6.950;2023-04-20T01:20:15;1.95;;;1.20;;
65187;SDS011;51775;51.148;6.950;2023-04-20T01:22:47;2.17;;;1.30;;
65187;SDS011;51775;51.148;6.950;2023-04-20T01:25:16;1.63;;;1.10;;
65187;SDS011;51775;51.148;6.950;2023-04-20T01:27:42;2.17;;;1.10;;
65187;SDS011;51775;51.148;6.950;2023-04-20T01:30:08;2.05;;;1.20;;
65187;SDS011;51775;51.148;6.950;2023-04-20T01:32:34;1.73;;;1.05;;
65187;SDS011;51775;51.148;6.950;2023-04-20T01:35:01;2.35;;;1.20;;
65187;SDS011;51775;51.148;6.950;2023-04-20T01:37:27;1.95;;;1.20;;
65187;SDS011;51775;51.148;6.950;2023-04-20T01:39:52;2.35;;;1.30;;
65187;SDS011;51775;51.148;6.950;2023-04-20T01:42:18;2.00;;;1.08;;
65187;SDS011;51775;51.148;6.950;2023-04-20T01:44:43;2.55;;;1.20;;
65187;SDS011;51775;51.148;6.950;2023-04-20T01:47:08;2.50;;;1.55;;
65187;SDS011;51775;51.148;6.950;2023-04-20T01:49:33;2.20;;;1.27;;
65187;SDS011;51775;51.148;6.950;2023-04-20T01:51:59;1.88;;;1.20;;
65187;SDS011;51775;51.148;6.950;2023-04-20T01:54:24;1.63;;;1.20;;
65187;SDS011;51775;51.148;6.950;2023-04-20T01:56:49;1.67;;;1.10;;
65187;SDS011;51775;51.148;6.950;2023-04-20T01:59:14;1.90;;;1.13;;
65187;SDS011;51775;51.148;6.950;2023-04-20T02:01:40;2.05;;;1.10;;
65187;SDS011;51775;51.148;6.950;2023-04-20T02:04:05;2.55;;;1.30;;
65187;SDS011;51775;51.148;6.950;2023-04-20T02:06:30;1.77;;;1.10;;
65187;SDS011;51775;51.148;6.950;2023-04-20T02:08:55;1.83;;;1.20;;
65187;SDS011;51775;51.148;6.950;2023-04-20T02:11:21;1.90;;;1.20;;
65187;SDS011;51775;51.148;6.950;2023-04-20T02:13:46;2.13;;;1.20;;
65187;SDS011;51775;51.148;6.950;2023-04-20T02:16:12;2.20;;;1.20;;
65187;SDS011;51775;51.148;6.950;2023-04-20T02:18:37;1.75;;;1.10;;
65187;SDS011;51775;51.148;6.950;2023-04-20T02:21:02;2.35;;;1.38;;
65187;SDS011;51775;51.148;6.950;2023-04-20T02:23:27;2.53;;;1.38;;
65187;SDS011;51775;51.148;6.950;2023-04-20T02:25:53;2.20;;;1.20;;
65187;SDS011;51775;51.148;6.950;2023-04-20T02:28:18;2.20;;;1.20;;
65187;SDS011;51775;51.148;6.950;2023-04-20T02:30:43;1.50;;;1.10;;
65187;SDS011;51775;51.148;6.950;2023-04-20T02:33:09;2.58;;;1.30;;
65187;SDS011;51775;51.148;6.950;2023-04-20T02:35:34;2.05;;;1.10;;
65187;SDS011;51775;51.148;6.950;2023-04-20T02:37:59;1.80;;;1.08;;
65187;SDS011;51775;51.148;6.950;2023-04-20T02:40:25;1.85;;;1.20;;
65187;SDS011;51775;51.148;6.950;2023-04-20T02:42:50;3.08;;;1.20;;
65187;SDS011;51775;51.148;6.950;2023-04-20T02:45:15;1.70;;;1.10;;
65187;SDS011;51775;51.148;6.950;2023-04-20T02:47:41;1.70;;;1.08;;
65187;SDS011;51775;51.148;6.950;2023-04-20T02:50:06;1.88;;;1.15;;
65187;SDS011;51775;51.148;6.950;2023-04-20T02:52:32;1.80;;;1.23;;
65187;SDS011;51775;51.148;6.950;2023-04-20T02:54:57;2.10;;;1.30;;
65187;SDS011;51775;51.148;6.950;2023-04-20T02:57:22;2.20;;;1.20;;
65187;SDS011;51775;51.148;6.950;2023-04-20T02:59:47;2.05;;;1.17;;
65187;SDS011;51775;51.148;6.950;2023-04-20T03:02:13;1.85;;;1.10;;
65187;SDS011;51775;51.148;6.950;2023-04-20T03:04:38;1.90;;;1.20;;
65187;SDS011;51775;51.148;6.950;2023-04-20T03:07:03;1.92;;;1.10;;
65187;SDS011;51775;51.148;6.950;2023-04-20T03:09:29;1.92;;;1.17;;
65187;SDS011;51775;51.148;6.950;2023-04-20T03:11:54;1.77;;;1.10;;
65187;SDS011;51775;51.148;6.950;2023-04-20T03:14:19;1.65;;;1.00;;
65187;SDS011;51775;51.148;6.950;2023-04-20T03:16:44;2.17;;;1.35;;
65187;SDS011;51775;51.148;6.950;2023-04-20T03:19:10;1.52;;;1.00;;
65187;SDS011;51775;51.148;6.950;2023-04-20T03:21:35;1.75;;;1.00;;
65187;SDS011;51775;51.148;6.950;2023-04-20T03:24:00;2.40;;;1.27;;
65187;SDS011;51775;51.148;6.950;2023-04-20T03:26:26;1.58;;;1.10;;
65187;SDS011;51775;51.148;6.950;2023-04-20T03:28:51;2.22;;;1.23;;
65187;SDS011;51775;51.148;6.950;2023-04-20T03:31:17;1.58;;;0.90;;
65187;SDS011;51775;51.148;6.950;2023-04-20T03:33:42;2.20;;;1.20;;
65187;SDS011;51775;51.148;6.950;2023-04-20T03:36:07;3.28;;;1.30;;
65187;SDS011;51775;51.148;6.950;2023-04-20T03:38:33;1.83;;;1.15;;
65187;SDS011;51775;51.148;6.950;2023-04-20T03:40:58;1.88;;;1.17;;
65187;SDS011;51775;51.148;6.950;2023-04-20T03:43:23;1.75;;;1.20;;
65187;SDS011;51775;51.148;6.950;2023-04-20T03:45:48;1.80;;;1.15;;
65187;SDS011;51775;51.148;6.950;2023-04-20T03:48:14;2.28;;;1.30;;
65187;SDS011;51775;51.148;6.950;2023-04-20T03:50:39;1.83;;;1.20;;
65187;SDS011;51775;51.148;6.950;2023-04-20T03:53:04;1.80;;;1.10;;
65187;SDS011;51775;51.148;6.950;2023-04-20T03:55:29;1.80;;;1.15;;
65187;SDS011;51775;51.148;6.950;2023-04-20T03:57:55;1.42;;;1.08;;
65187;SDS011;51775;51.148;6.950;2023-04-20T04:00:20;2.20;;;1.10;;
65187;SDS011;51775;51.148;6.950;2023-04-20T04:02:45;2.35;;;1.20;;
65187;SDS011;51775;51.148;6.950;2023-04-20T04:05:11;2.10;;;1.20;;
65187;SDS011;51775;51.148;6.950;2023-04-20T04:07:36;1.88;;;1.08;;
65187;SDS011;51775;51.148;6.950;2023-04-20T04:10:01;1.88;;;1.10;;
65187;SDS011;51775;51.148;6.950;2023-04-20T04:12:26;1.52;;;1.00;;
65187;SDS011;51775;51.148;6.950;2023-04-20T04:14:52;3.33;;;1.30;;
65187;SDS011;51775;51.148;6.950;2023-04-20T04:17:17;1.60;;;1.13;;
65187;SDS011;51775;51.148;6.950;2023-04-20T04:19:42;1.98;;;1.10;;
65187;SDS011;51775;51.148;6.950;2023-04-20T04:22:08;2.35;;;1.33;;
65187;SDS011;51775;51.148;6.950;2023-04-20T04:24:33;1.80;;;1.02;;
65187;SDS011;51775;51.148;6.950;2023-04-20T04:26:58;2.03;;;1.20;;
65187;SDS011;51775;51.148;6.950;2023-04-20T04:29:24;2.70;;;1.25;;
65187;SDS011;51775;51.148;6.950;2023-04-20T04:31:49;2.20;;;1.15;;
65187;SDS011;51775;51.148;6.950;2023-04-20T04:34:14;2.08;;;1.25;;
65187;SDS011;51775;51.148;6.950;2023-04-20T04:36:41;2.00;;;1.20;;
65187;SDS011;51775;51.148;6.950;2023-04-20T04:39:07;2.47;;;1.10;;
65187;SDS011;51775;51.148;6.950;2023-04-20T04:41:32;1.80;;;1.10;;
65187;SDS011;51775;51.148;6.950;2023-04-20T04:43:57;2.10;;;1.10;;
65187;SDS011;51775;51.148;6.950;2023-04-20T04:46:23;1.85;;;1.17;;
65187;SDS011;51775;51.148;6.950;2023-04-20T04:48:48;1.70;;;1.00;;
65187;SDS011;51775;51.148;6.950;2023-04-20T04:51:13;1.90;;;1.10;;
65187;SDS011;51775;51.148;6.950;2023-04-20T04:53:38;1.92;;;1.27;;
65187;SDS011;51775;51.148;6.950;2023-04-20T04:56:04;1.70;;;1.10;;
65187;SDS011;51775;51.148;6.950;2023-04-20T04:58:29;1.75;;;1.20;;
65187;SDS011;51775;51.148;6.950;2023-04-20T05:00:54;2.20;;;1.30;;
65187;SDS011;51775;51.148;6.950;2023-04-20T05:03:20;1.90;;;1.17;;
65187;SDS011;51775;51.148;6.950;2023-04-20T05:05:45;2.05;;;1.10;;
65187;SDS011;51775;51.148;6.950;2023-04-20T05:08:10;2.00;;;1.27;;
65187;SDS011;51775;51.148;6.950;2023-04-20T05:10:36;2.15;;;1.20;;
65187;SDS011;51775;51.148;6.950;2023-04-20T05:13:01;2.20;;;1.10;;
65187;SDS011;51775;51.148;6.950;2023-04-20T05:15:26;1.98;;;1.27;;
65187;SDS011;51775;51.148;6.950;2023-04-20T05:17:51;2.45;;;1.20;;
65187;SDS011;51775;51.148;6.950;2023-04-20T05:20:17;2.25;;;1.33;;
65187;SDS011;51775;51.148;6.950;2023-04-20T05:22:42;2.15;;;1.25;;
65187;SDS011;51775;51.148;6.950;2023-04-20T05:25:08;2.08;;;1.20;;
65187;SDS011;51775;51.148;6.950;2023-04-20T05:27:34;2.67;;;1.40;;
65187;SDS011;51775;51.148;6.950;2023-04-20T05:32:28;2.13;;;1.23;;
65187;SDS011;51775;51.148;6.950;2023-04-20T05:34:54;1.90;;;1.20;;
65187;SDS011;51775;51.148;6.950;2023-04-20T05:37:19;2.22;;;1.15;;
65187;SDS011;51775;51.148;6.950;2023-04-20T05:39:44;2.40;;;1.30;;
65187;SDS011;51775;51.148;6.950;2023-04-20T05:42:10;1.85;;;1.10;;
65187;SDS011;51775;51.148;6.950;2023-04-20T05:44:35;2.08;;;1.30;;
65187;SDS011;51775;51.148;6.950;2023-04-20T05:47:01;2.40;;;1.42;;
65187;SDS011;51775;51.148;6.950;2023-04-20T05:49:28;2.90;;;1.40;;
65187;SDS011;51775;51.148;6.950;2023-04-20T05:51:55;1.80;;;1.20;;
65187;SDS011;51775;51.148;6.950;2023-04-20T05:56:49;2.00;;;1.33;;
65187;SDS011;51775;51.148;6.950;2023-04-20T05:59:15;1.83;;;1.20;;
65187;SDS011;51775;51.148;6.950;2023-04-20T06:01:40;1.95;;;1.20;;
65187;SDS011;51775;51.148;6.950;2023-04-20T06:04:08;2.08;;;1.30;;
65187;SDS011;51775;51.148;6.950;2023-04-20T06:06:33;1.92;;;1.30;;
65187;SDS011;51775;51.148;6.950;2023-04-20T06:08:58;2.28;;;1.30;;
65187;SDS011;51775;51.148;6.950;2023-04-20T06:11:30;2.35;;;1.42;;
65187;SDS011;51775;51.148;6.950;2023-04-20T06:13:56;3.55;;;1.30;;
65187;SDS011;51775;51.148;6.950;2023-04-20T06:18:51;6.63;;;1.75;;
65187;SDS011;51775;51.148;6.950;2023-04-20T06:21:16;2.10;;;1.30;;
65187;SDS011;51775;51.148;6.950;2023-04-20T06:23:42;2.03;;;1.30;;
65187;SDS011;51775;51.148;6.950;2023-04-20T06:26:07;2.85;;;1.40;;
65187;SDS011;51775;51.148;6.950;2023-04-20T06:28:33;2.40;;;1.60;;
65187;SDS011;51775;51.148;6.950;2023-04-20T06:30:59;2.50;;;1.50;;
65187;SDS011;51775;51.148;6.950;2023-04-20T06:33:24;2.33;;;1.40;;
65187;SDS011;51775;51.148;6.950;2023-04-20T06:35:49;1.92;;;1.33;;
65187;SDS011;51775;51.148;6.950;2023-04-20T06:38:14;2.17;;;1.40;;
65187;SDS011;51775;51.148;6.950;2023-04-20T06:40:40;2.55;;;1.42;;
65187;SDS011;51775;51.148;6.950;2023-04-20T06:43:05;1.90;;;1.23;;
65187;SDS011;51775;51.148;6.950;2023-04-20T06:45:30;3.72;;;1.25;;
65187;SDS011;51775;51.148;6.950;2023-04-20T06:47:55;1.77;;;1.20;;
65187;SDS011;51775;51.148;6.950;2023-04-20T06:50:21;4.00;;;1.40;;
65187;SDS011;51775;51.148;6.950;2023-04-20T06:52:46;1.80;;;1.20;;
65187;SDS011;51775;51.148;6.950;2023-04-20T06:55:11;2.15;;;1.20;;
65187;SDS011;51775;51.148;6.950;2023-04-20T06:57:36;2.58;;;1.45;;
65187;SDS011;51775;51.148;6.950;2023-04-20T07:00:02;2.20;;;1.20;;
65187;SDS011;51775;51.148;6.950;2023-04-20T07:02:28;2.05;;;1.27;;
65187;SDS011;51775;51.148;6.950;2023-04-20T07:04:58;2.00;;;1.13;;
65187;SDS011;51775;51.148;6.950;2023-04-20T07:07:24;2.22;;;1.48;;
65187;SDS011;51775;51.148;6.950;2023-04-20T07:09:49;2.08;;;1.20;;
65187;SDS011;51775;51.148;6.950;2023-04-20T07:12:15;2.15;;;1.27;;
65187;SDS011;51775;51.148;6.950;2023-04-20T07:14:40;2.10;;;1.23;;
65187;SDS011;51775;51.148;6.950;2023-04-20T07:17:05;1.90;;;1.20;;
65187;SDS011;51775;51.148;6.950;2023-04-20T07:19:31;1.48;;;1.08;;
65187;SDS011;51775;51.148;6.950;2023-04-20T07:21:56;2.88;;;1.35;;
65187;SDS011;51775;51.148;6.950;2023-04-20T07:24:22;2.75;;;1.10;;
65187;SDS011;51775;51.148;6.950;2023-04-20T07:26:47;2.63;;;1.00;;
65187;SDS011;51775;51.148;6.950;2023-04-20T07:29:13;1.83;;;1.20;;
65187;SDS011;51775;51.148;6.950;2023-04-20T07:31:38;2.53;;;1.25;;
65187;SDS011;51775;51.148;6.950;2023-04-20T07:34:03;1.77;;;1.20;;
65187;SDS011;51775;51.148;6.950;2023-04-20T07:36:29;1.95;;;1.13;;
65187;SDS011;51775;51.148;6.950;2023-04-20T07:38:54;2.97;;;1.20;;
65187;SDS011;51775;51.148;6.950;2023-04-20T07:41:19;1.73;;;1.20;;
65187;SDS011;51775;51.148;6.950;2023-04-20T07:43:45;3.10;;;1.70;;
65187;SDS011;51775;51.148;6.950;2023-04-20T07:46:18;2.95;;;1.17;;
65187;SDS011;51775;51.148;6.950;2023-04-20T07:48:43;2.58;;;1.48;;
65187;SDS011;51775;51.148;6.950;2023-04-20T07:51:09;1.70;;;1.13;;
65187;SDS011;51775;51.148;6.950;2023-04-20T07:53:34;2.75;;;1.30;;
65187;SDS011;51775;51.148;6.950;2023-04-20T07:55:59;2.28;;;1.25;;
65187;SDS011;51775;51.148;6.950;2023-04-20T07:58:25;3.00;;;1.25;;
65187;SDS011;51775;51.148;6.950;2023-04-20T08:00:50;2.25;;;1.23;;
65187;SDS011;51775;51.148;6.950;2023-04-20T08:03:15;2.10;;;1.20;;
65187;SDS011;51775;51.148;6.950;2023-04-20T08:05:42;2.00;;;1.20;;
65187;SDS011;51775;51.148;6.950;2023-04-20T08:08:08;2.50;;;1.20;;
65187;SDS011;51775;51.148;6.950;2023-04-20T08:10:33;1.80;;;1.20;;
65187;SDS011;51775;51.148;6.950;2023-04-20T08:12:59;3.97;;;1.20;;
65187;SDS011;51775;51.148;6.950;2023-04-20T08:15:25;2.17;;;1.20;;
65187;SDS011;51775;51.148;6.950;2023-04-20T08:17:51;2.10;;;1.20;;
65187;SDS011;51775;51.148;6.950;2023-04-20T08:20:16;2.00;;;1.25;;
65187;SDS011;51775;51.148;6.950;2023-04-20T08:22:42;1.95;;;1.20;;
65187;SDS011;51775;51.148;6.950;2023-04-20T08:25:07;1.65;;;1.05;;
65187;SDS011;51775;51.148;6.950;2023-04-20T08:27:32;1.70;;;1.10;;
65187;SDS011;51775;51.148;6.950;2023-04-20T08:29:58;1.80;;;1.20;;
65187;SDS011;51775;51.148;6.950;2023-04-20T08:32:23;1.70;;;1.20;;
65187;SDS011;51775;51.148;6.950;2023-04-20T08:34:48;1.70;;;1.00;;
65187;SDS011;51775;51.148;6.950;2023-04-20T08:37:14;2.15;;;1.00;;
65187;SDS011;51775;51.148;6.950;2023-04-20T08:39:39;2.10;;;1.35;;
65187;SDS011;51775;51.148;6.950;2023-04-20T08:42:05;2.40;;;1.00;;
65187;SDS011;51775;51.148;6.950;2023-04-20T08:44:30;1.60;;;0.98;;
65187;SDS011;51775;51.148;6.950;2023-04-20T08:46:55;1.63;;;1.10;;
65187;SDS011;51775;51.148;6.950;2023-04-20T08:49:21;1.20;;;0.90;;
65187;SDS011;51775;51.148;6.950;2023-04-20T08:51:46;1.80;;;1.00;;
65187;SDS011;51775;51.148;6.950;2023-04-20T08:54:12;1.70;;;1.05;;
65187;SDS011;51775;51.148;6.950;2023-04-20T08:56:39;1.83;;;1.20;;
65187;SDS011;51775;51.148;6.950;2023-04-20T08:59:08;1.58;;;0.90;;
65187;SDS011;51775;51.148;6.950;2023-04-20T09:01:34;1.48;;;0.93;;
65187;SDS011;51775;51.148;6.950;2023-04-20T09:04:01;1.80;;;1.02;;
65187;SDS011;51775;51.148;6.950;2023-04-20T09:06:27;2.17;;;1.10;;
65187;SDS011;51775;51.148;6.950;2023-04-20T09:08:53;1.17;;;0.90;;
65187;SDS011;51775;51.148;6.950;2023-04-20T09:11:22;1.88;;;1.10;;
65187;SDS011;51775;51.148;6.950;2023-04-20T09:14:05;1.48;;;0.90;;
65187;SDS011;51775;51.148;6.950;2023-04-20T09:16:32;1.35;;;1.00;;
65187;SDS011;51775;51.148;6.950;2023-04-20T09:18:58;2.13;;;1.20;;
65187;SDS011;51775;51.148;6.950;2023-04-20T09:21:23;1.73;;;1.08;;
65187;SDS011;51775;51.148;6.950;2023-04-20T09:24:00;1.50;;;0.90;;
65187;SDS011;51775;51.148;6.950;2023-04-20T09:26:26;2.30;;;1.10;;
65187;SDS011;51775;51.148;6.950;2023-04-20T09:28:55;1.98;;;0.90;;
65187;SDS011;51775;51.148;6.950;2023-04-20T09:31:21;1.70;;;1.00;;
65187;SDS011;51775;51.148;6.950;2023-04-20T09:34:00;2.42;;;1.00;;
65187;SDS011;51775;51.148;6.950;2023-04-20T09:39:18;1.40;;;0.90;;
65187;SDS011;51775;51.148;6.950;2023-04-20T09:41:45;1.67;;;1.00;;
65187;SDS011;51775;51.148;6.950;2023-04-20T09:44:11;1.35;;;0.85;;
65187;SDS011;51775;51.148;6.950;2023-04-20T09:46:37;1.80;;;1.10;;
65187;SDS011;51775;51.148;6.950;2023-04-20T09:49:05;1.38;;;0.90;;
65187;SDS011;51775;51.148;6.950;2023-04-20T09:51:35;1.90;;;1.15;;
65187;SDS011;51775;51.148;6.950;2023-04-20T09:54:02;1.25;;;0.85;;
65187;SDS011;51775;51.148;6.950;2023-04-20T09:56:29;1.30;;;0.90;;
65187;SDS011;51775;51.148;6.950;2023-04-20T09:58:55;1.65;;;0.90;;
65187;SDS011;51775;51.148;6.950;2023-04-20T10:01:22;1.98;;;0.95;;
65187;SDS011;51775;51.148;6.950;2023-04-20T10:03:48;1.33;;;0.90;;
65187;SDS011;51775;51.148;6.950;2023-04-20T10:06:24;1.33;;;0.75;;
65187;SDS011;51775;51.148;6.950;2023-04-20T10:08:51;1.40;;;0.80;;
65187;SDS011;51775;51.148;6.950;2023-04-20T10:11:24;2.08;;;1.00;;
65187;SDS011;51775;51.148;6.950;2023-04-20T10:14:00;1.80;;;0.80;;
65187;SDS011;51775;51.148;6.950;2023-04-20T10:16:39;1.45;;;0.90;;
65187;SDS011;51775;51.148;6.950;2023-04-20T10:19:04;1.58;;;0.90;;
65187;SDS011;51775;51.148;6.950;2023-04-20T10:21:29;1.17;;;0.80;;
65187;SDS011;51775;51.148;6.950;2023-04-20T10:23:56;1.70;;;0.90;;
65187;SDS011;51775;51.148;6.950;2023-04-20T10:26:21;1.15;;;0.80;;
65187;SDS011;51775;51.148;6.950;2023-04-20T10:28:47;1.15;;;0.80;;
65187;SDS011;51775;51.148;6.950;2023-04-20T10:31:12;1.15;;;0.73;;
65187;SDS011;51775;51.148;6.950;2023-04-20T10:33:51;0.80;;;0.65;;
65187;SDS011;51775;51.148;6.950;2023-04-20T10:36:22;1.45;;;0.93;;
65187;SDS011;51775;51.148;6.950;2023-04-20T10:38:52;1.20;;;0.80;;
65187;SDS011;51775;51.148;6.950;2023-04-20T10:41:18;1.10;;;0.80;;
65187;SDS011;51775;51.148;6.950;2023-04-20T10:43:44;1.05;;;0.80;;
65187;SDS011;51775;51.148;6.950;2023-04-20T10:46:13;1.48;;;0.70;;
65187;SDS011;51775;51.148;6.950;2023-04-20T10:48:52;1.10;;;0.70;;
65187;SDS011;51775;51.148;6.950;2023-04-20T10:51:21;1.23;;;0.68;;
65187;SDS011;51775;51.148;6.950;2023-04-20T10:54:01;1.05;;;0.65;;
65187;SDS011;51775;51.148;6.950;2023-04-20T10:56:34;1.00;;;0.60;;
65187;SDS011;51775;51.148;6.950;2023-04-20T10:59:09;0.80;;;0.60;;
65187;SDS011;51775;51.148;6.950;2023-04-20T11:01:39;1.35;;;0.70;;
65187;SDS011;51775;51.148;6.950;2023-04-20T11:04:05;0.52;;;0.52;;
65187;SDS011;51775;51.148;6.950;2023-04-20T11:06:30;1.17;;;0.80;;
65187;SDS011;51775;51.148;6.950;2023-04-20T11:08:55;1.45;;;0.80;;
65187;SDS011;51775;51.148;6.950;2023-04-20T11:11:22;1.42;;;0.70;;
65187;SDS011;51775;51.148;6.950;2023-04-20T11:13:48;1.77;;;0.80;;
65187;SDS011;51775;51.148;6.950;2023-04-20T11:16:15;0.65;;;0.60;;
65187;SDS011;51775;51.148;6.950;2023-04-20T11:18:47;1.00;;;0.70;;
65187;SDS011;51775;51.148;6.950;2023-04-20T11:21:13;2.17;;;0.80;;
65187;SDS011;51775;51.148;6.950;2023-04-20T11:23:39;1.25;;;0.80;;
65187;SDS011;51775;51.148;6.950;2023-04-20T11:26:04;0.90;;;0.60;;
65187;SDS011;51775;51.148;6.950;2023-04-20T11:28:29;1.20;;;0.70;;
65187;SDS011;51775;51.148;6.950;2023-04-20T11:30:55;1.33;;;0.63;;
65187;SDS011;51775;51.148;6.950;2023-04-20T11:33:27;1.73;;;0.85;;
65187;SDS011;51775;51.148;6.950;2023-04-20T11:35:53;2.03;;;1.00;;
65187;SDS011;51775;51.148;6.950;2023-04-20T11:38:33;1.48;;;0.90;;
65187;SDS011;51775;51.148;6.950;2023-04-20T11:40:59;1.83;;;0.80;;
65187;SDS011;51775;51.148;6.950;2023-04-20T11:43:24;0.88;;;0.57;;
65187;SDS011;51775;51.148;6.950;2023-04-20T11:45:50;1.00;;;0.52;;
65187;SDS011;51775;51.148;6.950;2023-04-20T11:48:15;1.90;;;0.60;;
65187;SDS011;51775;51.148;6.950;2023-04-20T11:50:40;2.72;;;0.70;;
65187;SDS011;51775;51.148;6.950;2023-04-20T11:53:05;2.20;;;0.75;;
65187;SDS011;51775;51.148;6.950;2023-04-20T11:55:31;2.25;;;0.60;;
65187;SDS011;51775;51.148;6.950;2023-04-20T11:57:56;1.40;;;0.70;;
65187;SDS011;51775;51.148;6.950;2023-04-20T12:00:21;1.73;;;0.70;;
65187;SDS011;51775;51.148;6.950;2023-04-20T12:02:47;1.38;;;0.80;;
65187;SDS011;51775;51.148;6.950;2023-04-20T12:05:12;2.00;;;0.70;;
65187;SDS011;51775;51.148;6.950;2023-04-20T12:07:37;2.88;;;0.88;;
65187;SDS011;51775;51.148;6.950;2023-04-20T12:10:02;2.78;;;0.90;;
65187;SDS011;51775;51.148;6.950;2023-04-20T12:12:28;1.88;;;0.80;;
65187;SDS011;51775;51.148;6.950;2023-04-20T12:14:53;4.05;;;0.88;;
65187;SDS011;51775;51.148;6.950;2023-04-20T12:17:19;3.63;;;0.90;;
65187;SDS011;51775;51.148;6.950;2023-04-20T12:19:44;1.27;;;0.82;;
65187;SDS011;51775;51.148;6.950;2023-04-20T12:22:09;1.65;;;0.80;;
65187;SDS011;51775;51.148;6.950;2023-04-20T12:24:34;2.38;;;0.80;;
65187;SDS011;51775;51.148;6.950;2023-04-20T12:26:59;3.35;;;0.90;;
65187;SDS011;51775;51.148;6.950;2023-04-20T12:29:25;1.98;;;0.90;;
65187;SDS011;51775;51.148;6.950;2023-04-20T12:31:50;1.50;;;0.70;;
65187;SDS011;51775;51.148;6.950;2023-04-20T12:34:15;1.60;;;0.98;;
65187;SDS011;51775;51.148;6.950;2023-04-20T12:36:41;1.90;;;0.93;;
65187;SDS011;51775;51.148;6.950;2023-04-20T12:39:06;2.47;;;1.02;;
65187;SDS011;51775;51.148;6.950;2023-04-20T12:41:31;1.10;;;0.73;;
65187;SDS011;51775;51.148;6.950;2023-04-20T12:43:56;1.58;;;0.82;;
65187;SDS011;51775;51.148;6.950;2023-04-20T12:46:22;1.70;;;0.90;;
65187;SDS011;51775;51.148;6.950;2023-04-20T12:48:47;1.40;;;0.90;;
65187;SDS011;51775;51.148;6.950;2023-04-20T12:51:13;2.28;;;0.90;;
65187;SDS011;51775;51.148;6.950;2023-04-20T12:53:38;1.60;;;1.00;;
65187;SDS011;51775;51.148;6.950;2023-04-20T12:56:04;3.20;;;1.00;;
65187;SDS011;51775;51.148;6.950;2023-04-20T12:58:29;1.63;;;1.00;;
65187;SDS011;51775;51.148;6.950;2023-04-20T13:00:54;2.03;;;1.05;;
65187;SDS011;51775;51.148;6.950;2023-04-20T13:03:20;2.80;;;1.15;;
65187;SDS011;51775;51.148;6.950;2023-04-20T13:05:45;2.15;;;1.20;;
65187;SDS011;51775;51.148;6.950;2023-04-20T13:08:10;2.95;;;1.10;;
65187;SDS011;51775;51.148;6.950;2023-04-20T13:10:37;3.13;;;1.20;;
65187;SDS011;51775;51.148;6.950;2023-04-20T13:13:03;2.60;;;1.60;;
65187;SDS011;51775;51.148;6.950;2023-04-20T13:15:29;2.33;;;1.15;;
65187;SDS011;51775;51.148;6.950;2023-04-20T13:17:54;2.80;;;1.25;;
65187;SDS011;51775;51.148;6.950;2023-04-20T13:20:19;3.20;;;1.20;;
65187;SDS011;51775;51.148;6.950;2023-04-20T13:22:45;1.77;;;1.10;;
65187;SDS011;51775;51.148;6.950;2023-04-20T13:25:10;2.97;;;1.20;;
65187;SDS011;51775;51.148;6.950;2023-04-20T13:27:35;2.45;;;1.27;;
65187;SDS011;51775;51.148;6.950;2023-04-20T13:30:01;2.00;;;1.23;;
65187;SDS011;51775;51.148;6.950;2023-04-20T13:32:26;1.95;;;1.20;;
65187;SDS011;51775;51.148;6.950;2023-04-20T13:34:51;2.22;;;1.20;;
65187;SDS011;51775;51.148;6.950;2023-04-20T13:37:17;1.95;;;1.30;;
65187;SDS011;51775;51.148;6.950;2023-04-20T13:39:42;2.08;;;1.20;;
65187;SDS011;51775;51.148;6.950;2023-04-20T13:42:08;2.38;;;1.10;;
65187;SDS011;51775;51.148;6.950;2023-04-20T13:44:33;2.63;;;1.10;;
65187;SDS011;51775;51.148;6.950;2023-04-20T13:46:59;1.85;;;1.27;;
65187;SDS011;51775;51.148;6.950;2023-04-20T13:49:24;1.60;;;1.10;;
65187;SDS011;51775;51.148;6.950;2023-04-20T13:51:49;2.20;;;1.17;;
65187;SDS011;51775;51.148;6.950;2023-04-20T13:54:14;1.95;;;1.27;;
65187;SDS011;51775;51.148;6.950;2023-04-20T13:56:40;2.58;;;1.15;;
65187;SDS011;51775;51.148;6.950;2023-04-20T13:59:05;2.63;;;1.20;;
65187;SDS011;51775;51.148;6.950;2023-04-20T14:01:30;1.80;;;1.20;;
65187;SDS011;51775;51.148;6.950;2023-04-20T14:03:56;1.50;;;1.10;;
65187;SDS011;51775;51.148;6.950;2023-04-20T14:06:21;1.83;;;1.13;;
65187;SDS011;51775;51.148;6.950;2023-04-20T14:08:46;1.70;;;1.30;;
65187;SDS011;51775;51.148;6.950;2023-04-20T14:11:12;1.70;;;1.13;;
65187;SDS011;51775;51.148;6.950;2023-04-20T14:13:37;2.53;;;1.20;;
65187;SDS011;51775;51.148;6.950;2023-04-20T14:16:09;1.63;;;1.10;;
65187;SDS011;51775;51.148;6.950;2023-04-20T14:18:35;1.67;;;1.20;;
65187;SDS011;51775;51.148;6.950;2023-04-20T14:21:01;1.88;;;1.17;;
65187;SDS011;51775;51.148;6.950;2023-04-20T14:23:26;3.25;;;1.17;;
65187;SDS011;51775;51.148;6.950;2023-04-20T14:25:51;2.17;;;1.30;;
65187;SDS011;51775;51.148;6.950;2023-04-20T14:28:16;1.92;;;1.17;;
65187;SDS011;51775;51.148;6.950;2023-04-20T14:30:42;1.35;;;1.00;;
65187;SDS011;51775;51.148;6.950;2023-04-20T14:33:08;2.10;;;1.20;;
65187;SDS011;51775;51.148;6.950;2023-04-20T14:35:34;2.80;;;1.20;;
65187;SDS011;51775;51.148;6.950;2023-04-20T14:37:59;2.05;;;1.20;;
65187;SDS011;51775;51.148;6.950;2023-04-20T14:40:24;1.90;;;1.33;;
65187;SDS011;51775;51.148;6.950;2023-04-20T14:42:49;2.78;;;1.20;;
65187;SDS011;51775;51.148;6.950;2023-04-20T14:45:15;2.20;;;1.20;;
65187;SDS011;51775;51.148;6.950;2023-04-20T14:47:40;3.25;;;1.27;;
65187;SDS011;51775;51.148;6.950;2023-04-20T14:50:06;3.42;;;1.27;;